Aérodrome :
LOGIN :

S'inscrire | Disclaimer

   EN    FR    IT 

 










Légende :    VFR   VFR Marginal   IFR   IFR Intensif   IFR Très Intensif
Visi : 
Plafond : 
>= 8 km
>= 3000ft
5 à 8 km
1000 à 3000 ft
1500m à 5 km
500 à 1000 ft
800 à 1500m
200 à 500 ft
< 800m
< 200 ft
Symboles :   Orages  Brouillard  Fortes neiges  Fortes précipitations  Vent > 20 kt
SIGMETs :   Divers  Orages  Givrage  Turbulence  Onde Orograph.  Cendres Volcan.






- Altitude de l'aérodrome : 404 ft
- Code IATA : WRO


EPWR - Wroclaw

DERNIER METAR :
  • 071600Z 30008KT CAVOK 20/06 Q1017

METARs EXPIRÉS :
  • 071530Z 29009KT CAVOK 18/07 Q1018
  • 071500Z 30010KT CAVOK 19/06 Q1018
  • 071430Z 31009KT 270V330 9999 FEW043 19/06 Q1018
  • 071400Z 31010KT 9999 FEW043 18/06 Q1018
  • 071330Z 29008KT 240V320 9999 FEW043 18/07 Q1018

TAF TAF EPWR
Valide du 07 à 15h jusqu'au 08 à 15h UTC


071430Z 0715/0815 31010KT CAVOK
BECMG 0718/0721 21004KT
TEMPO 0803/0809 BKN009



MET'MAP, la Météo Aéronautique d'un coup d'oeil ! - Copyright ORBIFLY Décembre 2007 - Disclaimer

ORBIFLY MET'MAP TEAM :

Programmation & Développement : Alexandra Zaïnal
Sur une idée originale de : Baudouin d'Aumeries
Assistance à la programmation : Marc-Olivier Méhu
Soutien technique & logistique : Manuel Goepfert

Contact : metmap@orbifly.com




SOURCES & CREDITS :

   NOAA